sensor_id;sensor_type;location;lat;lon;timestamp;temperature;humidity
9410;DHT22;4744;52.576;13.568;2022-10-26T00:02:10;8.30;1.00
9410;DHT22;4744;52.576;13.568;2022-10-26T00:04:37;8.30;1.00
9410;DHT22;4744;52.576;13.568;2022-10-26T00:07:04;8.30;1.00
9410;DHT22;4744;52.576;13.568;2022-10-26T00:09:31;8.30;1.00
9410;DHT22;4744;52.576;13.568;2022-10-26T00:11:57;8.30;1.00
9410;DHT22;4744;52.576;13.568;2022-10-26T00:14:25;8.30;1.00
9410;DHT22;4744;52.576;13.568;2022-10-26T00:16:52;8.30;1.00
9410;DHT22;4744;52.576;13.568;2022-10-26T00:19:20;8.20;1.00
9410;DHT22;4744;52.576;13.568;2022-10-26T00:21:48;8.20;1.00
9410;DHT22;4744;52.576;13.568;2022-10-26T00:24:14;8.20;1.00
9410;DHT22;4744;52.576;13.568;2022-10-26T00:26:41;8.20;1.00
9410;DHT22;4744;52.576;13.568;2022-10-26T00:29:10;8.20;1.00
9410;DHT22;4744;52.576;13.568;2022-10-26T00:31:38;8.20;1.00
9410;DHT22;4744;52.576;13.568;2022-10-26T00:34:05;8.10;1.00
9410;DHT22;4744;52.576;13.568;2022-10-26T00:36:33;8.10;1.00
9410;DHT22;4744;52.576;13.568;2022-10-26T00:39:00;8.10;1.00
9410;DHT22;4744;52.576;13.568;2022-10-26T00:41:29;8.10;1.00
9410;DHT22;4744;52.576;13.568;2022-10-26T00:43:57;8.10;1.00
9410;DHT22;4744;52.576;13.568;2022-10-26T00:46:27;8.00;1.00
9410;DHT22;4744;52.576;13.568;2022-10-26T00:48:57;8.00;1.00
9410;DHT22;4744;52.576;13.568;2022-10-26T00:51:29;8.00;1.00
9410;DHT22;4744;52.576;13.568;2022-10-26T00:53:59;8.00;1.00
9410;DHT22;4744;52.576;13.568;2022-10-26T00:56:28;7.90;1.00
9410;DHT22;4744;52.576;13.568;2022-10-26T00:58:58;7.80;1.00
9410;DHT22;4744;52.576;13.568;2022-10-26T01:01:26;7.80;1.00
9410;DHT22;4744;52.576;13.568;2022-10-26T01:03:53;7.80;1.00
9410;DHT22;4744;52.576;13.568;2022-10-26T01:06:20;7.70;1.00
9410;DHT22;4744;52.576;13.568;2022-10-26T01:08:47;7.70;1.00
9410;DHT22;4744;52.576;13.568;2022-10-26T01:11:16;7.70;1.00
9410;DHT22;4744;52.576;13.568;2022-10-26T01:13:44;7.70;1.00
9410;DHT22;4744;52.576;13.568;2022-10-26T01:16:34;7.70;1.00
9410;DHT22;4744;52.576;13.568;2022-10-26T01:19:25;7.70;1.00
9410;DHT22;4744;52.576;13.568;2022-10-26T01:21:58;7.70;1.00
9410;DHT22;4744;52.576;13.568;2022-10-26T01:24:51;7.70;1.00
9410;DHT22;4744;52.576;13.568;2022-10-26T01:27:26;7.60;1.00
9410;DHT22;4744;52.576;13.568;2022-10-26T01:30:30;7.60;1.00
9410;DHT22;4744;52.576;13.568;2022-10-26T01:33:21;7.60;1.00
9410;DHT22;4744;52.576;13.568;2022-10-26T01:35:58;7.60;1.00
9410;DHT22;4744;52.576;13.568;2022-10-26T01:38:31;7.60;1.00
9410;DHT22;4744;52.576;13.568;2022-10-26T01:41:05;7.60;1.00
9410;DHT22;4744;52.576;13.568;2022-10-26T01:43:35;7.50;1.00
9410;DHT22;4744;52.576;13.568;2022-10-26T01:46:06;7.50;1.00
9410;DHT22;4744;52.576;13.568;2022-10-26T01:48:35;7.40;1.00
9410;DHT22;4744;52.576;13.568;2022-10-26T01:51:03;7.40;1.00
9410;DHT22;4744;52.576;13.568;2022-10-26T01:53:31;7.40;1.00
9410;DHT22;4744;52.576;13.568;2022-10-26T01:55:58;7.40;1.00
9410;DHT22;4744;52.576;13.568;2022-10-26T02:01:56;7.30;1.00
9410;DHT22;4744;52.576;13.568;2022-10-26T02:04:36;7.30;1.00
9410;DHT22;4744;52.576;13.568;2022-10-26T02:07:15;7.30;1.00
9410;DHT22;4744;52.576;13.568;2022-10-26T02:09:51;7.20;1.00
9410;DHT22;4744;52.576;13.568;2022-10-26T02:12:30;7.20;1.00
9410;DHT22;4744;52.576;13.568;2022-10-26T02:15:06;7.20;1.00
9410;DHT22;4744;52.576;13.568;2022-10-26T02:17:40;7.10;1.00
9410;DHT22;4744;52.576;13.568;2022-10-26T02:20:12;7.10;1.00
9410;DHT22;4744;52.576;13.568;2022-10-26T02:22:44;7.10;1.00
9410;DHT22;4744;52.576;13.568;2022-10-26T02:25:20;7.00;1.00
9410;DHT22;4744;52.576;13.568;2022-10-26T02:27:52;7.00;1.00
9410;DHT22;4744;52.576;13.568;2022-10-26T02:30:20;6.90;1.00
9410;DHT22;4744;52.576;13.568;2022-10-26T02:32:50;7.00;1.00
9410;DHT22;4744;52.576;13.568;2022-10-26T02:35:21;7.00;1.00
9410;DHT22;4744;52.576;13.568;2022-10-26T02:37:50;6.90;1.00
9410;DHT22;4744;52.576;13.568;2022-10-26T02:40:21;6.90;1.00
9410;DHT22;4744;52.576;13.568;2022-10-26T02:42:50;6.90;1.00
9410;DHT22;4744;52.576;13.568;2022-10-26T02:45:20;6.90;1.00
9410;DHT22;4744;52.576;13.568;2022-10-26T02:47:50;6.90;1.00
9410;DHT22;4744;52.576;13.568;2022-10-26T02:50:18;6.90;1.00
9410;DHT22;4744;52.576;13.568;2022-10-26T02:52:52;6.90;1.00
9410;DHT22;4744;52.576;13.568;2022-10-26T02:55:23;6.80;1.00
9410;DHT22;4744;52.576;13.568;2022-10-26T02:57:55;6.80;1.00
9410;DHT22;4744;52.576;13.568;2022-10-26T03:00:24;6.80;1.00
9410;DHT22;4744;52.576;13.568;2022-10-26T03:02:54;6.70;1.00
9410;DHT22;4744;52.576;13.568;2022-10-26T03:05:24;6.70;1.00
9410;DHT22;4744;52.576;13.568;2022-10-26T03:07:52;6.70;1.00
9410;DHT22;4744;52.576;13.568;2022-10-26T03:10:19;6.70;1.00
9410;DHT22;4744;52.576;13.568;2022-10-26T03:12:46;6.70;1.00
9410;DHT22;4744;52.576;13.568;2022-10-26T03:15:13;6.70;1.00
9410;DHT22;4744;52.576;13.568;2022-10-26T03:17:40;6.70;1.00
9410;DHT22;4744;52.576;13.568;2022-10-26T03:20:09;6.70;1.00
9410;DHT22;4744;52.576;13.568;2022-10-26T03:22:36;6.70;1.00
9410;DHT22;4744;52.576;13.568;2022-10-26T03:25:04;6.70;1.00
9410;DHT22;4744;52.576;13.568;2022-10-26T03:27:31;6.70;1.00
9410;DHT22;4744;52.576;13.568;2022-10-26T03:29:59;6.70;1.00
9410;DHT22;4744;52.576;13.568;2022-10-26T03:32:26;6.70;1.00
9410;DHT22;4744;52.576;13.568;2022-10-26T03:34:53;6.70;1.00
9410;DHT22;4744;52.576;13.568;2022-10-26T03:37:21;6.60;1.00
9410;DHT22;4744;52.576;13.568;2022-10-26T03:39:47;6.60;1.00
9410;DHT22;4744;52.576;13.568;2022-10-26T03:42:14;6.60;1.00
9410;DHT22;4744;52.576;13.568;2022-10-26T03:44:41;6.60;1.00
9410;DHT22;4744;52.576;13.568;2022-10-26T03:47:08;6.60;1.00
9410;DHT22;4744;52.576;13.568;2022-10-26T03:49:35;6.60;1.00
9410;DHT22;4744;52.576;13.568;2022-10-26T03:52:02;6.60;1.00
9410;DHT22;4744;52.576;13.568;2022-10-26T03:54:30;6.60;1.00
9410;DHT22;4744;52.576;13.568;2022-10-26T03:56:57;6.50;1.00
9410;DHT22;4744;52.576;13.568;2022-10-26T03:59:24;6.50;1.00
9410;DHT22;4744;52.576;13.568;2022-10-26T04:01:50;6.50;1.00
9410;DHT22;4744;52.576;13.568;2022-10-26T04:04:17;6.50;1.00
9410;DHT22;4744;52.576;13.568;2022-10-26T04:06:44;6.50;1.00
9410;DHT22;4744;52.576;13.568;2022-10-26T04:09:11;6.50;1.00
9410;DHT22;4744;52.576;13.568;2022-10-26T04:11:39;6.40;1.00
9410;DHT22;4744;52.576;13.568;2022-10-26T04:14:06;6.40;1.00
9410;DHT22;4744;52.576;13.568;2022-10-26T04:16:32;6.40;1.00
9410;DHT22;4744;52.576;13.568;2022-10-26T04:18:59;6.40;1.00
9410;DHT22;4744;52.576;13.568;2022-10-26T04:21:26;6.40;1.00
9410;DHT22;4744;52.576;13.568;2022-10-26T04:23:53;6.40;1.00
9410;DHT22;4744;52.576;13.568;2022-10-26T04:26:20;6.40;1.00
9410;DHT22;4744;52.576;13.568;2022-10-26T04:28:48;6.50;1.00
9410;DHT22;4744;52.576;13.568;2022-10-26T04:31:14;6.40;1.00
9410;DHT22;4744;52.576;13.568;2022-10-26T04:33:41;6.40;1.00
9410;DHT22;4744;52.576;13.568;2022-10-26T04:36:09;6.40;1.00
9410;DHT22;4744;52.576;13.568;2022-10-26T04:38:36;6.40;1.00
9410;DHT22;4744;52.576;13.568;2022-10-26T04:41:03;6.40;1.00
9410;DHT22;4744;52.576;13.568;2022-10-26T04:43:30;6.40;1.00
9410;DHT22;4744;52.576;13.568;2022-10-26T04:45:58;6.40;1.00
9410;DHT22;4744;52.576;13.568;2022-10-26T04:48:25;6.40;1.00
9410;DHT22;4744;52.576;13.568;2022-10-26T04:50:52;6.50;1.00
9410;DHT22;4744;52.576;13.568;2022-10-26T04:53:18;6.50;1.00
9410;DHT22;4744;52.576;13.568;2022-10-26T04:55:45;6.50;1.00
9410;DHT22;4744;52.576;13.568;2022-10-26T04:58:12;6.50;1.00
9410;DHT22;4744;52.576;13.568;2022-10-26T05:00:39;6.60;1.00
9410;DHT22;4744;52.576;13.568;2022-10-26T05:03:08;6.60;1.00
9410;DHT22;4744;52.576;13.568;2022-10-26T05:05:35;6.50;1.00
9410;DHT22;4744;52.576;13.568;2022-10-26T05:08:03;6.50;1.00
9410;DHT22;4744;52.576;13.568;2022-10-26T05:10:30;6.60;1.00
9410;DHT22;4744;52.576;13.568;2022-10-26T05:12:58;6.50;1.00
9410;DHT22;4744;52.576;13.568;2022-10-26T05:15:25;6.60;1.00
9410;DHT22;4744;52.576;13.568;2022-10-26T05:17:57;6.60;1.00
9410;DHT22;4744;52.576;13.568;2022-10-26T05:20:26;6.60;1.00
9410;DHT22;4744;52.576;13.568;2022-10-26T05:22:56;6.60;1.00
9410;DHT22;4744;52.576;13.568;2022-10-26T05:25:23;6.60;1.00
9410;DHT22;4744;52.576;13.568;2022-10-26T05:27:50;6.60;1.00
9410;DHT22;4744;52.576;13.568;2022-10-26T05:30:17;6.60;1.00
9410;DHT22;4744;52.576;13.568;2022-10-26T05:32:43;6.60;1.00
9410;DHT22;4744;52.576;13.568;2022-10-26T05:35:10;6.60;1.00
9410;DHT22;4744;52.576;13.568;2022-10-26T05:37:38;6.60;1.00
9410;DHT22;4744;52.576;13.568;2022-10-26T05:40:06;6.60;1.00
9410;DHT22;4744;52.576;13.568;2022-10-26T05:42:33;6.70;1.00
9410;DHT22;4744;52.576;13.568;2022-10-26T05:45:00;6.70;1.00
9410;DHT22;4744;52.576;13.568;2022-10-26T05:47:26;6.70;1.00
9410;DHT22;4744;52.576;13.568;2022-10-26T05:49:53;6.70;1.00
9410;DHT22;4744;52.576;13.568;2022-10-26T05:52:20;6.70;1.00
9410;DHT22;4744;52.576;13.568;2022-10-26T05:54:48;6.60;1.00
9410;DHT22;4744;52.576;13.568;2022-10-26T05:57:15;6.70;1.00
9410;DHT22;4744;52.576;13.568;2022-10-26T05:59:42;6.60;1.00
9410;DHT22;4744;52.576;13.568;2022-10-26T06:02:14;6.70;1.00
9410;DHT22;4744;52.576;13.568;2022-10-26T06:04:44;6.70;1.00
9410;DHT22;4744;52.576;13.568;2022-10-26T06:07:14;6.70;1.00
9410;DHT22;4744;52.576;13.568;2022-10-26T06:09:42;6.70;1.00
9410;DHT22;4744;52.576;13.568;2022-10-26T06:12:12;6.80;1.00
9410;DHT22;4744;52.576;13.568;2022-10-26T06:14:39;6.80;1.00
9410;DHT22;4744;52.576;13.568;2022-10-26T06:17:22;6.80;1.00
9410;DHT22;4744;52.576;13.568;2022-10-26T06:20:12;6.80;1.00
9410;DHT22;4744;52.576;13.568;2022-10-26T06:22:54;6.90;1.00
9410;DHT22;4744;52.576;13.568;2022-10-26T06:25:32;6.90;1.00
9410;DHT22;4744;52.576;13.568;2022-10-26T06:28:10;6.90;1.00
9410;DHT22;4744;52.576;13.568;2022-10-26T06:30:40;6.90;1.00
9410;DHT22;4744;52.576;13.568;2022-10-26T06:33:09;6.90;1.00
9410;DHT22;4744;52.576;13.568;2022-10-26T06:35:44;6.90;1.00
9410;DHT22;4744;52.576;13.568;2022-10-26T06:38:15;6.90;1.00
9410;DHT22;4744;52.576;13.568;2022-10-26T06:40:44;6.90;1.00
9410;DHT22;4744;52.576;13.568;2022-10-26T06:43:19;6.90;1.00
9410;DHT22;4744;52.576;13.568;2022-10-26T06:45:53;6.90;1.00
9410;DHT22;4744;52.576;13.568;2022-10-26T06:48:25;6.90;1.00
9410;DHT22;4744;52.576;13.568;2022-10-26T06:50:54;6.90;1.00
9410;DHT22;4744;52.576;13.568;2022-10-26T06:53:25;6.90;1.00
9410;DHT22;4744;52.576;13.568;2022-10-26T06:55:53;7.00;1.00
9410;DHT22;4744;52.576;13.568;2022-10-26T06:58:24;7.00;1.00
9410;DHT22;4744;52.576;13.568;2022-10-26T07:00:53;7.10;1.00
9410;DHT22;4744;52.576;13.568;2022-10-26T07:03:20;7.10;1.00
9410;DHT22;4744;52.576;13.568;2022-10-26T07:05:47;7.20;1.00
9410;DHT22;4744;52.576;13.568;2022-10-26T07:08:14;7.20;1.00
9410;DHT22;4744;52.576;13.568;2022-10-26T07:10:41;7.30;1.00
9410;DHT22;4744;52.576;13.568;2022-10-26T07:13:09;7.40;1.00
9410;DHT22;4744;52.576;13.568;2022-10-26T07:15:38;7.40;1.00
9410;DHT22;4744;52.576;13.568;2022-10-26T07:18:06;7.50;1.00
9410;DHT22;4744;52.576;13.568;2022-10-26T07:20:36;7.50;1.00
9410;DHT22;4744;52.576;13.568;2022-10-26T07:23:03;7.50;1.00
9410;DHT22;4744;52.576;13.568;2022-10-26T07:25:33;7.60;1.00
9410;DHT22;4744;52.576;13.568;2022-10-26T07:28:00;7.60;1.00
9410;DHT22;4744;52.576;13.568;2022-10-26T07:30:28;7.60;1.00
9410;DHT22;4744;52.576;13.568;2022-10-26T07:33:00;7.70;1.00
9410;DHT22;4744;52.576;13.568;2022-10-26T07:35:27;7.80;1.00
9410;DHT22;4744;52.576;13.568;2022-10-26T07:37:57;7.80;1.00
9410;DHT22;4744;52.576;13.568;2022-10-26T07:40:25;7.90;1.00
9410;DHT22;4744;52.576;13.568;2022-10-26T07:42:54;8.00;1.00
9410;DHT22;4744;52.576;13.568;2022-10-26T07:45:21;8.10;1.00
9410;DHT22;4744;52.576;13.568;2022-10-26T07:47:48;8.20;1.00
9410;DHT22;4744;52.576;13.568;2022-10-26T07:50:17;8.40;1.00
9410;DHT22;4744;52.576;13.568;2022-10-26T07:52:43;8.50;1.00
9410;DHT22;4744;52.576;13.568;2022-10-26T07:55:11;8.60;1.00
9410;DHT22;4744;52.576;13.568;2022-10-26T07:57:38;8.80;1.00
9410;DHT22;4744;52.576;13.568;2022-10-26T08:00:07;8.90;1.00
9410;DHT22;4744;52.576;13.568;2022-10-26T08:02:35;9.00;1.00
9410;DHT22;4744;52.576;13.568;2022-10-26T08:05:02;9.10;1.00
9410;DHT22;4744;52.576;13.568;2022-10-26T08:07:32;9.40;1.00
9410;DHT22;4744;52.576;13.568;2022-10-26T08:09:59;9.60;1.00
9410;DHT22;4744;52.576;13.568;2022-10-26T08:12:26;9.70;1.00
9410;DHT22;4744;52.576;13.568;2022-10-26T08:14:53;9.70;1.00
9410;DHT22;4744;52.576;13.568;2022-10-26T08:17:19;9.80;1.00
9410;DHT22;4744;52.576;13.568;2022-10-26T08:19:47;9.90;1.00
9410;DHT22;4744;52.576;13.568;2022-10-26T08:22:14;10.10;1.00
9410;DHT22;4744;52.576;13.568;2022-10-26T08:24:42;10.50;1.00
9410;DHT22;4744;52.576;13.568;2022-10-26T08:27:11;10.90;1.00
9410;DHT22;4744;52.576;13.568;2022-10-26T08:29:38;11.20;1.00
9410;DHT22;4744;52.576;13.568;2022-10-26T08:32:05;11.80;1.00
9410;DHT22;4744;52.576;13.568;2022-10-26T08:34:31;12.10;1.00
9410;DHT22;4744;52.576;13.568;2022-10-26T08:36:58;12.30;1.00
9410;DHT22;4744;52.576;13.568;2022-10-26T08:39:25;12.30;1.00
9410;DHT22;4744;52.576;13.568;2022-10-26T08:42:00;12.30;1.00
9410;DHT22;4744;52.576;13.568;2022-10-26T08:44:33;12.50;1.00
9410;DHT22;4744;52.576;13.568;2022-10-26T08:47:05;12.80;1.00
9410;DHT22;4744;52.576;13.568;2022-10-26T08:49:40;13.30;1.00
9410;DHT22;4744;52.576;13.568;2022-10-26T08:52:12;13.60;1.00
9410;DHT22;4744;52.576;13.568;2022-10-26T08:54:43;14.10;1.00
9410;DHT22;4744;52.576;13.568;2022-10-26T08:57:17;15.60;1.00
9410;DHT22;4744;52.576;13.568;2022-10-26T08:59:49;17.60;1.00
9410;DHT22;4744;52.576;13.568;2022-10-26T09:02:19;19.00;1.00
9410;DHT22;4744;52.576;13.568;2022-10-26T09:04:47;20.10;1.00
9410;DHT22;4744;52.576;13.568;2022-10-26T09:07:23;21.20;1.00
9410;DHT22;4744;52.576;13.568;2022-10-26T09:09:58;21.90;1.00
9410;DHT22;4744;52.576;13.568;2022-10-26T09:12:39;21.50;1.00
9410;DHT22;4744;52.576;13.568;2022-10-26T09:15:13;20.70;1.00
9410;DHT22;4744;52.576;13.568;2022-10-26T09:17:50;19.70;1.00
9410;DHT22;4744;52.576;13.568;2022-10-26T09:23:17;18.90;1.00
9410;DHT22;4744;52.576;13.568;2022-10-26T09:25:51;18.40;1.00
9410;DHT22;4744;52.576;13.568;2022-10-26T09:28:21;17.70;1.00
9410;DHT22;4744;52.576;13.568;2022-10-26T09:30:48;17.30;1.00
9410;DHT22;4744;52.576;13.568;2022-10-26T09:33:17;17.10;1.00
9410;DHT22;4744;52.576;13.568;2022-10-26T09:35:49;16.80;1.00
9410;DHT22;4744;52.576;13.568;2022-10-26T09:38:21;17.00;1.00
9410;DHT22;4744;52.576;13.568;2022-10-26T09:40:55;17.20;1.00
9410;DHT22;4744;52.576;13.568;2022-10-26T09:43:29;17.00;1.00
9410;DHT22;4744;52.576;13.568;2022-10-26T09:45:58;16.90;1.00
9410;DHT22;4744;52.576;13.568;2022-10-26T09:48:30;16.90;1.00
9410;DHT22;4744;52.576;13.568;2022-10-26T09:50:58;16.80;1.00
9410;DHT22;4744;52.576;13.568;2022-10-26T09:53:25;16.70;1.00
9410;DHT22;4744;52.576;13.568;2022-10-26T09:56:00;17.00;1.00
9410;DHT22;4744;52.576;13.568;2022-10-26T09:58:30;17.20;1.00
9410;DHT22;4744;52.576;13.568;2022-10-26T10:00:58;17.20;1.00
9410;DHT22;4744;52.576;13.568;2022-10-26T10:03:27;17.10;1.00
9410;DHT22;4744;52.576;13.568;2022-10-26T10:06:13;17.20;1.00
9410;DHT22;4744;52.576;13.568;2022-10-26T10:08:41;17.10;1.00
9410;DHT22;4744;52.576;13.568;2022-10-26T10:11:11;17.00;1.00
9410;DHT22;4744;52.576;13.568;2022-10-26T10:13:41;16.60;1.00
9410;DHT22;4744;52.576;13.568;2022-10-26T10:16:11;16.30;1.00
9410;DHT22;4744;52.576;13.568;2022-10-26T10:18:40;16.30;1.00
9410;DHT22;4744;52.576;13.568;2022-10-26T10:21:08;16.10;1.00
9410;DHT22;4744;52.576;13.568;2022-10-26T10:23:36;16.00;1.00
9410;DHT22;4744;52.576;13.568;2022-10-26T10:26:11;15.90;1.00
9410;DHT22;4744;52.576;13.568;2022-10-26T10:28:40;15.90;1.00
9410;DHT22;4744;52.576;13.568;2022-10-26T10:31:18;15.90;1.00
9410;DHT22;4744;52.576;13.568;2022-10-26T10:33:46;16.10;1.00
9410;DHT22;4744;52.576;13.568;2022-10-26T10:36:15;16.60;1.00
9410;DHT22;4744;52.576;13.568;2022-10-26T10:38:45;16.80;1.00
9410;DHT22;4744;52.576;13.568;2022-10-26T10:41:16;17.00;1.00
9410;DHT22;4744;52.576;13.568;2022-10-26T10:43:47;17.60;1.00
9410;DHT22;4744;52.576;13.568;2022-10-26T10:46:20;17.70;1.00
9410;DHT22;4744;52.576;13.568;2022-10-26T10:48:51;17.60;1.00
9410;DHT22;4744;52.576;13.568;2022-10-26T10:51:21;17.40;1.00
9410;DHT22;4744;52.576;13.568;2022-10-26T10:53:50;17.40;1.00
9410;DHT22;4744;52.576;13.568;2022-10-26T10:56:28;17.30;1.00
9410;DHT22;4744;52.576;13.568;2022-10-26T10:59:12;17.10;1.00
9410;DHT22;4744;52.576;13.568;2022-10-26T11:01:47;17.00;1.00
9410;DHT22;4744;52.576;13.568;2022-10-26T11:04:44;16.90;1.00
9410;DHT22;4744;52.576;13.568;2022-10-26T11:07:14;17.10;1.00
9410;DHT22;4744;52.576;13.568;2022-10-26T11:09:44;17.30;1.00
9410;DHT22;4744;52.576;13.568;2022-10-26T11:12:15;17.30;1.00
9410;DHT22;4744;52.576;13.568;2022-10-26T11:14:45;17.40;1.00
9410;DHT22;4744;52.576;13.568;2022-10-26T11:17:17;17.40;1.00
9410;DHT22;4744;52.576;13.568;2022-10-26T11:19:48;17.40;1.00
9410;DHT22;4744;52.576;13.568;2022-10-26T11:22:20;17.50;1.00
9410;DHT22;4744;52.576;13.568;2022-10-26T11:24:49;17.50;1.00
9410;DHT22;4744;52.576;13.568;2022-10-26T11:27:25;17.50;1.00
9410;DHT22;4744;52.576;13.568;2022-10-26T11:29:58;17.40;1.00
9410;DHT22;4744;52.576;13.568;2022-10-26T11:32:32;17.40;1.00
9410;DHT22;4744;52.576;13.568;2022-10-26T11:35:08;17.40;1.00
9410;DHT22;4744;52.576;13.568;2022-10-26T11:37:43;17.40;1.00
9410;DHT22;4744;52.576;13.568;2022-10-26T11:40:24;17.40;1.00
9410;DHT22;4744;52.576;13.568;2022-10-26T11:43:00;17.30;1.00
9410;DHT22;4744;52.576;13.568;2022-10-26T11:45:33;17.30;1.00
9410;DHT22;4744;52.576;13.568;2022-10-26T11:48:05;17.30;1.00
9410;DHT22;4744;52.576;13.568;2022-10-26T11:50:40;17.30;1.00
9410;DHT22;4744;52.576;13.568;2022-10-26T11:53:11;17.40;1.00
9410;DHT22;4744;52.576;13.568;2022-10-26T11:55:40;17.50;1.00
9410;DHT22;4744;52.576;13.568;2022-10-26T11:58:08;17.50;1.00
9410;DHT22;4744;52.576;13.568;2022-10-26T12:00:43;17.40;1.00
9410;DHT22;4744;52.576;13.568;2022-10-26T12:03:15;17.40;1.00
9410;DHT22;4744;52.576;13.568;2022-10-26T12:05:48;17.50;1.00
9410;DHT22;4744;52.576;13.568;2022-10-26T12:08:19;17.50;1.00
9410;DHT22;4744;52.576;13.568;2022-10-26T12:10:54;17.40;1.00
9410;DHT22;4744;52.576;13.568;2022-10-26T12:13:28;17.40;1.00
9410;DHT22;4744;52.576;13.568;2022-10-26T12:16:05;17.40;1.00
9410;DHT22;4744;52.576;13.568;2022-10-26T12:18:38;17.40;1.00
9410;DHT22;4744;52.576;13.568;2022-10-26T12:21:07;17.40;1.00
9410;DHT22;4744;52.576;13.568;2022-10-26T12:23:36;17.40;1.00
9410;DHT22;4744;52.576;13.568;2022-10-26T12:35:37;17.70;1.00
9410;DHT22;4744;52.576;13.568;2022-10-26T12:41:26;17.80;1.00
9410;DHT22;4744;52.576;13.568;2022-10-26T12:43:57;17.80;1.00
9410;DHT22;4744;52.576;13.568;2022-10-26T12:46:38;17.80;1.00
9410;DHT22;4744;52.576;13.568;2022-10-26T12:52:28;17.90;1.00
9410;DHT22;4744;52.576;13.568;2022-10-26T12:55:22;17.90;1.00
9410;DHT22;4744;52.576;13.568;2022-10-26T12:58:02;18.00;1.00
9410;DHT22;4744;52.576;13.568;2022-10-26T13:00:36;18.00;1.00
9410;DHT22;4744;52.576;13.568;2022-10-26T13:03:15;17.90;1.00
9410;DHT22;4744;52.576;13.568;2022-10-26T13:06:06;17.90;1.00
9410;DHT22;4744;52.576;13.568;2022-10-26T13:08:41;17.90;1.00
9410;DHT22;4744;52.576;13.568;2022-10-26T13:11:14;18.00;1.00
9410;DHT22;4744;52.576;13.568;2022-10-26T13:13:42;18.00;1.00
9410;DHT22;4744;52.576;13.568;2022-10-26T13:16:11;18.10;1.00
9410;DHT22;4744;52.576;13.568;2022-10-26T13:18:41;18.10;1.00
9410;DHT22;4744;52.576;13.568;2022-10-26T13:21:10;18.10;1.00
9410;DHT22;4744;52.576;13.568;2022-10-26T13:23:41;18.10;1.00
9410;DHT22;4744;52.576;13.568;2022-10-26T13:26:11;18.00;1.00
9410;DHT22;4744;52.576;13.568;2022-10-26T13:28:47;18.00;1.00
9410;DHT22;4744;52.576;13.568;2022-10-26T13:31:53;18.00;1.00
9410;DHT22;4744;52.576;13.568;2022-10-26T13:34:26;18.10;1.00
9410;DHT22;4744;52.576;13.568;2022-10-26T13:37:02;18.10;1.00
9410;DHT22;4744;52.576;13.568;2022-10-26T13:39:34;18.10;1.00
9410;DHT22;4744;52.576;13.568;2022-10-26T13:42:02;18.00;1.00
9410;DHT22;4744;52.576;13.568;2022-10-26T13:44:36;18.00;1.00
9410;DHT22;4744;52.576;13.568;2022-10-26T13:47:09;18.00;1.00
9410;DHT22;4744;52.576;13.568;2022-10-26T13:49:38;17.90;1.00
9410;DHT22;4744;52.576;13.568;2022-10-26T13:52:13;17.90;1.00
9410;DHT22;4744;52.576;13.568;2022-10-26T13:54:45;17.90;1.00
9410;DHT22;4744;52.576;13.568;2022-10-26T13:57:18;17.90;1.00
9410;DHT22;4744;52.576;13.568;2022-10-26T13:59:45;17.90;1.00
9410;DHT22;4744;52.576;13.568;2022-10-26T14:02:18;17.80;1.00
9410;DHT22;4744;52.576;13.568;2022-10-26T14:04:46;17.70;1.00
9410;DHT22;4744;52.576;13.568;2022-10-26T14:07:18;17.70;1.00
9410;DHT22;4744;52.576;13.568;2022-10-26T14:09:53;17.80;1.00
9410;DHT22;4744;52.576;13.568;2022-10-26T14:12:21;17.70;1.00
9410;DHT22;4744;52.576;13.568;2022-10-26T14:14:48;17.70;1.00
9410;DHT22;4744;52.576;13.568;2022-10-26T14:17:21;17.70;1.00
9410;DHT22;4744;52.576;13.568;2022-10-26T14:19:48;17.60;1.00
9410;DHT22;4744;52.576;13.568;2022-10-26T14:22:19;17.60;1.00
9410;DHT22;4744;52.576;13.568;2022-10-26T14:24:52;17.60;1.00
9410;DHT22;4744;52.576;13.568;2022-10-26T14:27:21;17.60;1.00
9410;DHT22;4744;52.576;13.568;2022-10-26T14:29:49;17.50;1.00
9410;DHT22;4744;52.576;13.568;2022-10-26T14:32:21;17.50;1.00
9410;DHT22;4744;52.576;13.568;2022-10-26T14:34:48;17.60;1.00
9410;DHT22;4744;52.576;13.568;2022-10-26T14:37:24;17.60;1.00
9410;DHT22;4744;52.576;13.568;2022-10-26T14:39:53;17.60;1.00
9410;DHT22;4744;52.576;13.568;2022-10-26T14:42:24;17.60;1.00
9410;DHT22;4744;52.576;13.568;2022-10-26T14:44:52;17.60;1.00
9410;DHT22;4744;52.576;13.568;2022-10-26T14:47:22;17.50;1.00
9410;DHT22;4744;52.576;13.568;2022-10-26T14:49:49;17.40;1.00
9410;DHT22;4744;52.576;13.568;2022-10-26T14:52:21;17.30;1.00
9410;DHT22;4744;52.576;13.568;2022-10-26T14:55:00;17.30;1.00
9410;DHT22;4744;52.576;13.568;2022-10-26T14:57:30;17.30;1.00
9410;DHT22;4744;52.576;13.568;2022-10-26T15:00:09;17.20;1.00
9410;DHT22;4744;52.576;13.568;2022-10-26T15:02:38;17.00;1.00
9410;DHT22;4744;52.576;13.568;2022-10-26T15:05:17;17.10;1.00
9410;DHT22;4744;52.576;13.568;2022-10-26T15:07:44;17.00;1.00
9410;DHT22;4744;52.576;13.568;2022-10-26T15:10:46;16.80;1.00
9410;DHT22;4744;52.576;13.568;2022-10-26T15:13:23;16.60;1.00
9410;DHT22;4744;52.576;13.568;2022-10-26T15:15:52;16.50;1.00
9410;DHT22;4744;52.576;13.568;2022-10-26T15:18:22;16.40;1.00
9410;DHT22;4744;52.576;13.568;2022-10-26T15:20:50;16.30;1.00
9410;DHT22;4744;52.576;13.568;2022-10-26T15:23:18;16.20;1.00
9410;DHT22;4744;52.576;13.568;2022-10-26T15:25:53;16.10;1.00
9410;DHT22;4744;52.576;13.568;2022-10-26T15:28:22;15.90;1.00
9410;DHT22;4744;52.576;13.568;2022-10-26T15:31:02;15.90;1.00
9410;DHT22;4744;52.576;13.568;2022-10-26T15:33:30;15.70;1.00
9410;DHT22;4744;52.576;13.568;2022-10-26T15:36:11;15.70;1.00
9410;DHT22;4744;52.576;13.568;2022-10-26T15:38:39;15.60;1.00
9410;DHT22;4744;52.576;13.568;2022-10-26T15:41:13;15.50;1.00
9410;DHT22;4744;52.576;13.568;2022-10-26T15:43:40;15.50;1.00
9410;DHT22;4744;52.576;13.568;2022-10-26T15:46:07;15.40;1.00
9410;DHT22;4744;52.576;13.568;2022-10-26T15:48:34;15.40;1.00
9410;DHT22;4744;52.576;13.568;2022-10-26T15:51:02;15.30;1.00
9410;DHT22;4744;52.576;13.568;2022-10-26T15:53:29;15.30;1.00
9410;DHT22;4744;52.576;13.568;2022-10-26T15:55:57;15.20;1.00
9410;DHT22;4744;52.576;13.568;2022-10-26T16:00:53;15.10;1.00
9410;DHT22;4744;52.576;13.568;2022-10-26T16:03:21;15.00;1.00
9410;DHT22;4744;52.576;13.568;2022-10-26T16:05:52;14.90;1.00
9410;DHT22;4744;52.576;13.568;2022-10-26T16:08:20;14.90;1.00
9410;DHT22;4744;52.576;13.568;2022-10-26T16:10:47;14.80;1.00
9410;DHT22;4744;52.576;13.568;2022-10-26T16:13:16;14.70;1.00
9410;DHT22;4744;52.576;13.568;2022-10-26T16:15:44;14.70;1.00
9410;DHT22;4744;52.576;13.568;2022-10-26T16:18:11;14.60;1.00
9410;DHT22;4744;52.576;13.568;2022-10-26T16:20:38;14.50;1.00
9410;DHT22;4744;52.576;13.568;2022-10-26T16:23:05;14.40;1.00
9410;DHT22;4744;52.576;13.568;2022-10-26T16:25:40;14.40;1.00
9410;DHT22;4744;52.576;13.568;2022-10-26T16:28:11;14.30;1.00
9410;DHT22;4744;52.576;13.568;2022-10-26T16:30:38;14.30;1.00
9410;DHT22;4744;52.576;13.568;2022-10-26T16:33:06;14.20;1.00
9410;DHT22;4744;52.576;13.568;2022-10-26T16:35:33;14.10;1.00
9410;DHT22;4744;52.576;13.568;2022-10-26T16:37:59;14.00;1.00
9410;DHT22;4744;52.576;13.568;2022-10-26T16:40:26;14.00;1.00
9410;DHT22;4744;52.576;13.568;2022-10-26T16:42:53;13.90;1.00
9410;DHT22;4744;52.576;13.568;2022-10-26T16:45:20;13.90;1.00
9410;DHT22;4744;52.576;13.568;2022-10-26T16:47:47;13.80;1.00
9410;DHT22;4744;52.576;13.568;2022-10-26T16:50:15;13.80;1.00
9410;DHT22;4744;52.576;13.568;2022-10-26T16:52:44;13.70;1.00
9410;DHT22;4744;52.576;13.568;2022-10-26T16:55:11;13.70;1.00
9410;DHT22;4744;52.576;13.568;2022-10-26T16:57:39;13.70;1.00